createdAt,value
2019-04-11T06:37:32.536Z,1005.29
2019-04-11T06:43:29.662Z,1005.25
2019-04-11T06:49:30.737Z,1005.27
2019-04-11T06:55:30.748Z,1005.35
2019-04-11T07:01:30.082Z,1005.33
2019-04-11T07:07:32.402Z,1005.36
2019-04-11T07:13:30.502Z,1005.30
2019-04-11T07:19:30.695Z,1005.34
2019-04-11T07:25:30.982Z,1005.34
2019-04-11T12:43:38.288Z,1005.39
2019-04-11T12:49:38.301Z,1005.46
2019-04-11T12:55:38.303Z,1005.44
2019-04-11T13:01:38.572Z,1005.36
2019-04-11T13:07:38.341Z,1005.36
2019-04-11T13:13:38.308Z,1005.25
2019-04-11T13:19:38.341Z,1005.24
2019-04-11T13:25:38.321Z,1005.15
2019-04-11T13:31:38.304Z,1005.26
2019-04-11T13:37:38.327Z,1005.17
2019-04-11T13:43:38.318Z,1005.25
2019-04-11T13:49:38.329Z,1005.12
2019-04-11T13:55:38.347Z,1005.13
2019-04-11T14:01:40.468Z,1005.10
2019-04-11T14:07:38.342Z,1005.09
2019-04-11T14:13:38.329Z,1004.96
2019-04-11T14:19:41.398Z,1004.97
2019-04-11T14:25:38.394Z,1005.01
2019-04-11T14:31:38.339Z,1004.99
2019-04-11T14:37:38.841Z,1005.06
2019-04-11T14:43:38.328Z,1005.01
2019-04-11T14:52:39.698Z,1005.01
2019-04-11T14:58:39.712Z,1004.90
2019-04-11T15:04:43.667Z,1005.03
2019-04-11T15:10:39.752Z,1004.94
2019-04-11T15:16:40.206Z,1005.02
2019-04-11T15:22:39.794Z,1004.92
2019-04-11T15:28:43.692Z,1005.03
2019-04-11T15:34:39.760Z,1005.03
2019-04-11T15:40:39.788Z,1005.08
2019-04-11T15:46:39.793Z,1005.13
2019-04-11T15:52:39.778Z,1005.05
2019-04-11T15:58:42.444Z,1005.06
2019-04-11T16:04:39.898Z,1005.13
2019-04-11T16:10:41.850Z,1005.13
2019-04-11T16:16:41.840Z,1005.13
2019-04-11T16:22:39.791Z,1005.21
2019-04-11T16:28:39.782Z,1005.15
2019-04-11T16:34:48.177Z,1005.15
2019-04-11T16:40:39.811Z,1005.19
2019-04-11T16:46:39.786Z,1005.15
2019-04-11T16:52:39.839Z,1005.31
2019-04-11T16:58:39.853Z,1005.24
2019-04-11T17:04:39.982Z,1005.32
2019-04-11T17:10:39.879Z,1005.28
2019-04-11T17:16:39.878Z,1005.32
2019-04-11T17:22:39.801Z,1005.34
2019-04-11T17:28:39.817Z,1005.40
2019-04-11T17:34:39.868Z,1005.52
2019-04-11T17:40:40.182Z,1005.47
2019-04-11T17:46:39.830Z,1005.60
2019-04-11T17:52:39.888Z,1005.71
2019-04-11T17:58:40.939Z,1005.74
2019-04-11T18:04:44.067Z,1005.80
2019-04-11T18:10:39.893Z,1005.82
2019-04-11T18:16:39.901Z,1005.82
2019-04-11T18:22:40.294Z,1005.93
2019-04-11T18:28:39.888Z,1006.11
2019-04-11T18:34:39.872Z,1006.09
2019-04-11T18:40:40.266Z,1006.24
2019-04-11T18:46:39.913Z,1006.36
2019-04-11T18:52:39.878Z,1006.34
2019-04-11T18:58:39.910Z,1006.40
2019-04-11T19:04:42.131Z,1006.45
2019-04-11T19:10:39.892Z,1006.52
2019-04-11T19:16:39.955Z,1006.61
2019-04-11T19:22:39.901Z,1006.58
2019-04-11T19:28:39.908Z,1006.67
2019-04-11T19:34:39.973Z,1006.75
2019-04-11T19:40:39.917Z,1006.70
2019-04-11T19:46:40.986Z,1006.63
2019-04-11T19:52:45.233Z,1006.70
2019-04-11T19:58:39.964Z,1006.70
2019-04-11T20:04:39.925Z,1006.65
2019-04-11T20:10:39.985Z,1006.68
2019-04-11T20:16:42.009Z,1006.61
2019-04-11T20:22:40.520Z,1006.70
2019-04-11T20:28:39.940Z,1006.76
2019-04-11T20:34:40.016Z,1006.76
2019-04-11T20:40:40.003Z,1006.85
2019-04-11T20:46:39.985Z,1006.83
2019-04-11T20:52:40.004Z,1006.82
2019-04-11T20:58:40.324Z,1006.87
2019-04-11T21:04:39.976Z,1006.90
2019-04-11T21:10:39.979Z,1006.99
2019-04-11T21:16:39.962Z,1007.06
2019-04-11T21:22:39.975Z,1007.05
2019-04-11T21:28:39.954Z,1007.14
2019-04-11T21:34:40.012Z,1007.15
2019-04-11T21:40:41.067Z,1007.26
2019-04-11T21:46:41.891Z,1007.31
2019-04-11T21:52:43.395Z,1007.34
2019-04-11T21:58:39.960Z,1007.41
2019-04-11T22:04:39.976Z,1007.44
2019-04-11T22:10:40.355Z,1007.39
2019-04-11T22:16:44.311Z,1007.42
2019-04-11T22:22:40.326Z,1007.50
2019-04-11T22:28:40.071Z,1007.49
2019-04-11T22:34:40.118Z,1007.56
2019-04-11T22:40:40.029Z,1007.64
2019-04-11T22:46:39.981Z,1007.61
2019-04-11T22:52:42.165Z,1007.57
2019-04-11T22:58:40.002Z,1007.61
2019-04-11T23:04:40.048Z,1007.69
2019-04-11T23:10:40.053Z,1007.64
2019-04-11T23:16:41.865Z,1007.64
2019-04-11T23:22:42.824Z,1007.73
2019-04-11T23:28:40.145Z,1007.74
2019-04-11T23:34:40.018Z,1007.78
2019-04-11T23:40:40.198Z,1007.88
2019-04-11T23:46:40.174Z,1007.90
2019-04-11T23:52:40.102Z,1007.86
2019-04-11T23:58:40.106Z,1007.91
